Time;durP1;ratioP1;P1;durP2;ratioP2;P2;SDS_P1;SDS_P2;PMS_P1;PMS_P2;Temp;Humidity;BMP_temperature;BMP_pressure;BME280_temperature;BME280_humidity;BME280_pressure;Samples;Min_cycle;Max_cycle;Signal;HPM_P1;HPM_P2
2022/09/07 04:02:11;;;;;;;13.63;12.43;;;13.30;96.30;;;;;;5183743;23;20507;-83
2022/09/07 04:04:37;;;;;;;14.20;13.00;;;13.40;96.30;;;;;;5028268;28;20496;-78
2022/09/07 04:07:02;;;;;;;14.87;13.37;;;13.50;96.30;;;;;;5011563;28;20499;-78
2022/09/07 04:09:28;;;;;;;20.27;18.13;;;13.70;96.30;;;;;;4997853;28;20264;-81
2022/09/07 04:11:53;;;;;;;19.30;17.37;;;13.80;96.30;;;;;;5006398;28;20200;-81
2022/09/07 04:14:19;;;;;;;16.77;15.30;;;13.80;96.30;;;;;;5005683;28;20188;-80
2022/09/07 04:16:44;;;;;;;18.13;15.97;;;13.90;96.30;;;;;;5021056;28;20181;-81
2022/09/07 04:19:10;;;;;;;17.27;15.53;;;13.90;96.30;;;;;;5013221;28;20182;-82
2022/09/07 05:47:47;;;;;;;10.20;9.10;;;18.20;96.30;;;;;;6169232;23;20439;-80
2022/09/07 05:50:13;;;;;;;11.20;10.10;;;17.60;96.30;;;;;;4958313;28;20492;-78
2022/09/07 05:52:38;;;;;;;11.43;10.33;;;17.30;96.30;;;;;;4961208;28;20434;-81
2022/09/07 05:55:04;;;;;;;11.50;9.17;;;17.50;96.30;;;;;;4978520;28;20171;-81
2022/09/07 05:57:29;;;;;;;10.40;9.07;;;17.40;96.30;;;;;;4978144;28;20542;-79
2022/09/07 05:59:55;;;;;;;10.77;9.27;;;17.40;96.30;;;;;;4978093;28;20583;-80
2022/09/07 06:02:20;;;;;;;9.63;8.73;;;18.50;96.30;;;;;;4977834;28;20289;-80
2022/09/07 06:04:46;;;;;;;9.60;8.60;;;19.80;96.30;;;;;;4979866;28;20179;-81
2022/09/07 06:07:12;;;;;;;8.93;8.13;;;20.10;96.30;;;;;;4978219;28;20189;-80
2022/09/07 06:09:39;;;;;;;9.50;7.27;;;19.80;96.30;;;;;;4989049;28;20212;-80
2022/09/07 06:12:05;;;;;;;15.80;8.40;;;19.60;96.30;;;;;;4997702;28;20473;-80
2022/09/07 06:14:31;;;;;;;10.50;7.73;;;19.60;96.30;;;;;;4981947;28;20432;-80
2022/09/07 06:16:57;;;;;;;17.30;8.57;;;19.30;96.30;;;;;;4997734;28;20217;-80
2022/09/07 06:19:22;;;;;;;13.13;7.60;;;19.20;96.30;;;;;;4980016;28;20456;-79
2022/09/07 06:21:48;;;;;;;7.70;6.83;;;19.40;96.30;;;;;;4998822;28;20209;-81
2022/09/07 06:24:14;;;;;;;15.23;8.20;;;19.60;96.30;;;;;;4998601;28;20804;-80
2022/09/07 06:26:39;;;;;;;10.20;8.60;;;20.60;96.30;;;;;;4999738;28;20656;-81
2022/09/07 06:29:05;;;;;;;11.00;9.43;;;21.90;96.30;;;;;;5001543;28;20249;-81
2022/09/07 06:31:30;;;;;;;15.90;7.70;;;22.50;96.30;;;;;;4999738;28;20199;-82
2022/09/07 06:33:56;;;;;;;12.00;7.77;;;23.90;96.30;;;;;;4996000;28;20576;-82
2022/09/07 06:36:26;;;;;;;7.77;7.07;;;24.60;96.30;;;;;;4978278;28;20259;-82
2022/09/07 06:38:51;;;;;;;7.23;6.53;;;25.10;96.30;;;;;;4995673;28;20192;-82
2022/09/07 06:41:16;;;;;;;6.90;6.20;;;25.60;96.30;;;;;;4984884;28;20980;-82
2022/09/07 06:43:43;;;;;;;8.20;6.80;;;25.70;96.30;;;;;;4976269;28;20177;-82
2022/09/07 06:46:09;;;;;;;8.93;6.97;;;26.30;96.30;;;;;;4976412;28;20509;-82
2022/09/07 06:48:35;;;;;;;7.90;5.67;;;26.40;96.30;;;;;;4975676;28;20483;-79
2022/09/07 06:51:03;;;;;;;6.17;5.57;;;26.90;96.30;;;;;;4975099;28;20232;-79
2022/09/07 06:53:30;;;;;;;7.03;6.43;;;26.50;96.30;;;;;;4981448;28;20445;-81
2022/09/07 06:55:56;;;;;;;8.40;6.00;;;25.40;96.30;;;;;;4981931;28;20507;-81
2022/09/07 06:58:23;;;;;;;8.37;6.37;;;25.00;96.30;;;;;;4982241;28;20897;-81
2022/09/07 07:00:49;;;;;;;6.73;6.00;;;24.60;96.30;;;;;;4981913;28;20681;-81
2022/09/07 07:03:15;;;;;;;7.40;6.70;;;25.30;96.30;;;;;;4983049;28;20452;-81
2022/09/07 07:05:40;;;;;;;11.43;6.73;;;24.80;96.30;;;;;;4982407;28;20205;-81
2022/09/07 07:08:06;;;;;;;7.10;6.50;;;23.80;96.30;;;;;;4981569;28;20181;-81
2022/09/07 07:10:35;;;;;;;7.13;6.37;;;24.00;96.30;;;;;;5000538;28;20272;-81
2022/09/07 07:13:01;;;;;;;7.80;6.60;;;23.90;96.30;;;;;;5004122;28;20185;-81
2022/09/07 07:15:29;;;;;;;10.63;6.77;;;23.20;96.30;;;;;;5005358;28;20420;-82
2022/09/07 07:17:55;;;;;;;11.60;6.77;;;23.70;96.30;;;;;;5004574;28;20177;-81
2022/09/07 07:20:20;;;;;;;6.10;5.60;;;24.30;96.30;;;;;;5006554;28;20935;-81
2022/09/07 07:22:53;;;;;;;6.40;5.90;;;25.50;96.30;;;;;;5005490;28;20174;-81
2022/09/07 07:25:19;;;;;;;6.83;6.13;;;25.80;96.30;;;;;;5004820;28;20184;-82
2022/09/07 07:27:44;;;;;;;7.80;5.80;;;26.90;96.30;;;;;;5004754;28;20416;-82
2022/09/07 07:30:12;;;;;;;7.77;5.60;;;27.60;96.30;;;;;;5004927;28;20176;-82
2022/09/07 07:32:37;;;;;;;9.90;6.13;;;28.80;96.30;;;;;;5005426;28;20200;-82
2022/09/07 07:35:03;;;;;;;6.30;5.70;;;29.20;92.30;;;;;;5006165;28;20416;-83
2022/09/07 07:37:28;;;;;;;6.20;5.63;;;29.30;91.90;;;;;;5005055;28;20554;-82
2022/09/07 07:39:55;;;;;;;6.13;5.60;;;29.00;92.00;;;;;;5002885;28;20184;-82
2022/09/07 07:42:21;;;;;;;6.03;5.40;;;28.70;93.20;;;;;;5005314;28;20208;-82
2022/09/07 07:44:46;;;;;;;10.23;5.77;;;28.30;94.40;;;;;;5000874;28;20185;-83
2022/09/07 07:47:12;;;;;;;8.87;6.17;;;27.60;96.30;;;;;;4979451;28;20173;-83
2022/09/07 07:49:37;;;;;;;6.33;5.73;;;27.10;96.30;;;;;;4995881;28;20208;-83
2022/09/07 07:52:05;;;;;;;15.50;6.87;;;28.60;94.80;;;;;;4996790;28;20209;-83
2022/09/07 07:54:35;;;;;;;6.50;5.47;;;28.90;94.20;;;;;;4998860;28;20239;-82
2022/09/07 07:57:01;;;;;;;6.27;5.77;;;27.90;96.00;;;;;;4996655;28;20413;-82
2022/09/07 07:59:26;;;;;;;6.73;6.10;;;27.10;96.30;;;;;;4995743;28;20412;-82
2022/09/07 08:01:52;;;;;;;7.33;6.00;;;26.60;96.30;;;;;;4995152;28;20204;-82
2022/09/07 08:04:17;;;;;;;9.77;6.53;;;26.60;96.30;;;;;;4978362;28;20173;-82
2022/09/07 08:06:43;;;;;;;8.20;6.20;;;26.30;96.30;;;;;;4995757;28;20219;-81
2022/09/07 08:09:10;;;;;;;6.40;5.80;;;25.40;96.30;;;;;;4995286;28;20173;-83
2022/09/07 08:11:36;;;;;;;6.87;5.83;;;26.50;96.30;;;;;;4995863;28;20193;-82
2022/09/07 08:14:04;;;;;;;6.53;5.93;;;27.30;96.30;;;;;;4995934;28;20408;-82
2022/09/07 08:16:30;;;;;;;10.17;6.53;;;27.90;96.30;;;;;;4996353;28;20754;-82
2022/09/07 08:18:56;;;;;;;6.47;5.87;;;28.90;96.30;;;;;;4995519;28;20419;-82
2022/09/07 08:21:22;;;;;;;6.93;5.97;;;29.20;94.10;;;;;;4996100;28;20251;-81
2022/09/07 08:23:47;;;;;;;6.23;5.63;;;29.20;94.10;;;;;;4995776;28;20405;-82
2022/09/07 08:26:13;;;;;;;8.27;5.80;;;29.60;93.00;;;;;;4995486;28;20258;-82
2022/09/07 08:28:40;;;;;;;9.43;5.80;;;29.30;94.00;;;;;;4994133;28;20188;-83
2022/09/07 08:31:08;;;;;;;14.20;6.53;;;29.50;93.80;;;;;;4994723;28;20589;-82
2022/09/07 08:33:36;;;;;;;7.00;5.73;;;29.80;92.30;;;;;;4994658;28;20416;-82
2022/09/07 08:36:04;;;;;;;6.27;5.67;;;29.40;93.20;;;;;;4994788;28;20428;-81
2022/09/07 08:38:31;;;;;;;5.83;5.23;;;29.20;92.70;;;;;;4977957;28;20503;-82
2022/09/07 08:40:58;;;;;;;8.20;5.77;;;28.70;94.70;;;;;;4986937;28;20547;-81
2022/09/07 08:43:35;;;;;;;6.73;6.13;;;28.60;96.30;;;;;;4975891;28;20476;-82
2022/09/07 08:46:19;;;;;;;9.03;6.57;;;28.40;96.30;;;;;;4975540;28;20412;-80
2022/09/07 08:48:44;;;;;;;9.50;6.77;;;27.60;96.30;;;;;;4973655;28;20805;-81
2022/09/07 08:51:23;;;;;;;7.33;6.50;;;26.70;96.30;;;;;;4974794;28;20440;-82
2022/09/07 08:53:49;;;;;;;7.30;6.53;;;25.80;96.30;;;;;;4974925;28;20189;-80
2022/09/07 08:56:23;;;;;;;9.47;6.90;;;25.30;96.30;;;;;;4974554;28;20496;-81
2022/09/07 08:58:52;;;;;;;7.40;6.60;;;24.80;96.30;;;;;;4974091;28;20409;-80
2022/09/07 09:01:40;;;;;;;13.23;7.33;;;24.50;96.30;;;;;;4975115;28;20555;-81
2022/09/07 09:04:27;;;;;;;10.37;7.10;;;24.20;96.30;;;;;;4975022;28;20405;-81
2022/09/07 09:07:21;;;;;;;10.37;7.93;;;23.90;96.30;;;;;;4975384;28;20413;-80
2022/09/07 09:10:04;;;;;;;9.47;7.70;;;23.80;96.30;;;;;;4974473;28;20928;-81
2022/09/07 09:12:34;;;;;;;8.73;7.90;;;23.70;96.30;;;;;;4974215;28;20418;-80
2022/09/07 09:15:29;;;;;;;8.63;7.73;;;23.60;96.30;;;;;;4974271;28;20516;-80
2022/09/07 09:18:26;;;;;;;9.17;8.10;;;23.40;96.30;;;;;;4974254;28;20410;-80
2022/09/07 09:20:56;;;;;;;8.63;7.83;;;23.40;96.30;;;;;;4974248;28;21012;-80
2022/09/07 09:23:26;;;;;;;8.57;7.70;;;23.50;96.30;;;;;;4974105;28;20448;-81
2022/09/07 09:25:54;;;;;;;8.13;7.03;;;23.60;96.30;;;;;;4974416;28;20409;-81
2022/09/07 09:28:20;;;;;;;9.30;8.10;;;23.50;96.30;;;;;;4974184;28;20405;-80
2022/09/07 09:30:46;;;;;;;10.57;8.20;;;23.60;96.30;;;;;;4974338;28;20498;-80
2022/09/07 09:33:26;;;;;;;7.93;7.10;;;23.80;96.30;;;;;;4974422;28;20409;-80
2022/09/07 09:35:59;;;;;;;9.10;8.23;;;23.70;96.30;;;;;;4974016;28;20468;-80
2022/09/07 09:38:28;;;;;;;8.80;6.80;;;23.50;96.30;;;;;;4974156;28;20413;-80
2022/09/07 09:40:55;;;;;;;9.03;8.13;;;23.70;96.30;;;;;;4981589;28;20472;-80
2022/09/07 09:43:24;;;;;;;11.10;9.37;;;23.90;96.30;;;;;;4993762;28;20413;-80
2022/09/07 09:45:56;;;;;;;11.77;8.60;;;24.00;96.30;;;;;;4993380;28;20412;-80
2022/09/07 09:48:38;;;;;;;27.50;9.80;;;24.00;96.30;;;;;;4975536;28;20436;-80
2022/09/07 09:51:06;;;;;;;10.50;9.40;;;24.20;96.30;;;;;;4993224;28;20965;-80
2022/09/07 09:53:45;;;;;;;11.07;9.90;;;24.20;96.30;;;;;;4993578;28;20420;-80
2022/09/07 09:56:11;;;;;;;11.90;9.47;;;24.20;96.30;;;;;;4993936;28;20798;-80
2022/09/07 09:58:44;;;;;;;9.80;8.90;;;24.40;96.30;;;;;;4993145;28;20420;-80
2022/09/07 10:01:29;;;;;;;11.57;10.30;;;24.40;96.30;;;;;;4993340;28;20209;-80
2022/09/07 10:03:54;;;;;;;10.57;9.47;;;24.20;96.30;;;;;;4991856;28;20424;-81
2022/09/07 10:06:20;;;;;;;11.10;10.03;;;24.40;96.30;;;;;;4975876;28;20427;-79
2022/09/07 10:09:03;;;;;;;13.60;10.77;;;24.60;96.30;;;;;;4993344;28;20532;-79
2022/09/07 10:11:45;;;;;;;10.87;9.87;;;25.00;96.30;;;;;;4991794;28;20561;-79
2022/09/07 10:14:28;;;;;;;11.80;10.20;;;25.00;96.30;;;;;;4994382;28;20407;-82
2022/09/07 10:16:53;;;;;;;14.00;10.00;;;25.20;96.30;;;;;;4993437;28;20409;-81
2022/09/07 10:19:24;;;;;;;17.80;11.77;;;25.20;96.30;;;;;;4994195;28;20419;-81
2022/09/07 10:24:29;;;;;;;14.60;11.10;;;25.10;96.30;;;;;;5586043;23;20494;-80
2022/09/07 10:26:55;;;;;;;13.40;12.10;;;25.50;96.30;;;;;;5035675;28;20419;-80
2022/09/07 10:29:29;;;;;;;11.83;10.47;;;25.90;96.30;;;;;;5035716;28;20403;-80
2022/09/07 10:32:17;;;;;;;12.03;10.87;;;26.10;96.30;;;;;;5021748;28;20566;-80
2022/09/07 10:34:58;;;;;;;10.83;9.77;;;25.90;96.30;;;;;;5016583;28;20523;-80
2022/09/07 10:37:59;;;;;;;12.30;11.00;;;25.90;96.30;;;;;;5016728;28;20415;-80
2022/09/07 10:40:36;;;;;;;18.03;9.53;;;25.80;96.30;;;;;;5002145;28;20823;-80
2022/09/07 10:43:36;;;;;;;11.30;9.83;;;25.60;96.30;;;;;;5018660;28;20422;-81
2022/09/07 10:46:31;;;;;;;13.33;8.90;;;25.60;96.30;;;;;;5036450;28;20456;-80
2022/09/07 10:49:24;;;;;;;8.87;8.00;;;25.50;96.30;;;;;;5036003;28;20403;-80
2022/09/07 10:52:12;;;;;;;11.30;9.20;;;25.40;96.30;;;;;;5036243;28;20465;-81
2022/09/07 10:54:45;;;;;;;10.97;9.33;;;25.10;96.30;;;;;;5034907;28;20419;-80
2022/09/07 10:57:50;;;;;;;15.13;9.20;;;25.20;96.30;;;;;;5036402;28;20478;-80
2022/09/07 11:00:18;;;;;;;15.80;9.73;;;25.30;96.30;;;;;;5036756;28;20410;-80
2022/09/07 11:02:43;;;;;;;10.00;8.80;;;25.40;96.30;;;;;;5036157;28;20414;-81
2022/09/07 11:05:38;;;;;;;14.93;10.00;;;25.50;96.30;;;;;;5036576;28;20415;-80
2022/09/07 11:08:26;;;;;;;11.10;10.07;;;25.50;96.30;;;;;;5018605;28;20590;-80
2022/09/07 11:11:05;;;;;;;12.70;9.53;;;25.60;96.30;;;;;;5035668;28;20434;-81
2022/09/07 11:13:36;;;;;;;11.23;10.03;;;25.90;96.30;;;;;;5036150;28;20882;-80
2022/09/07 11:16:06;;;;;;;13.40;10.83;;;25.70;96.30;;;;;;5035652;28;20415;-80
2022/09/07 11:18:56;;;;;;;12.80;11.47;;;25.80;96.30;;;;;;5017559;28;20827;-79
2022/09/07 11:21:27;;;;;;;20.90;11.97;;;26.40;96.30;;;;;;5018003;28;20463;-79
2022/09/07 11:24:38;;;;;;;11.73;9.80;;;26.70;96.30;;;;;;5035944;28;20431;-80
2022/09/07 11:27:33;;;;;;;11.30;9.90;;;26.90;96.30;;;;;;4981380;28;20445;-80
2022/09/07 11:30:18;;;;;;;13.13;10.40;;;27.00;96.30;;;;;;5034361;28;20427;-81
2022/09/07 11:32:52;;;;;;;16.43;11.77;;;26.70;96.30;;;;;;5016892;28;20764;-80
2022/09/07 11:35:30;;;;;;;14.40;10.60;;;26.70;96.30;;;;;;5034146;28;20399;-81
2022/09/07 11:38:05;;;;;;;14.03;10.93;;;26.60;96.30;;;;;;5015878;28;20756;-81
2022/09/07 11:40:35;;;;;;;11.90;9.77;;;25.90;96.30;;;;;;5015966;28;20465;-81
2022/09/07 11:43:20;;;;;;;11.77;10.67;;;25.70;96.30;;;;;;5036583;28;20411;-80
2022/09/07 11:45:52;;;;;;;16.57;10.80;;;25.80;96.30;;;;;;5037328;28;20975;-80
2022/09/07 11:48:20;;;;;;;14.23;10.20;;;26.30;96.30;;;;;;5037635;28;20502;-80
2022/09/07 11:50:56;;;;;;;10.90;9.80;;;26.80;96.30;;;;;;5035421;28;20529;-80
2022/09/07 11:53:26;;;;;;;10.33;9.43;;;27.30;96.30;;;;;;5036716;28;20418;-80
2022/09/07 11:55:59;;;;;;;10.17;9.07;;;27.80;96.30;;;;;;5036195;28;20433;-80
2022/09/07 11:58:48;;;;;;;12.03;8.30;;;28.00;96.30;;;;;;5033582;28;20426;-80
2022/09/07 12:01:38;;;;;;;7.90;3.90;;;27.20;96.30;;;;;;5010241;28;20550;-82
2022/09/07 12:04:23;;;;;;;6.33;3.70;;;27.20;96.30;;;;;;4995915;28;20423;-82
2022/09/07 12:07:39;;;;;;;11.47;2.93;;;27.10;96.30;;;;;;5013575;28;20498;-82
2022/09/07 12:10:27;;;;;;;6.00;2.30;;;26.80;96.30;;;;;;5013114;28;20944;-83
2022/09/07 12:13:25;;;;;;;5.97;2.60;;;26.70;96.30;;;;;;4997459;28;20511;-82
2022/09/07 12:16:47;;;;;;;9.80;2.90;;;27.20;96.30;;;;;;4993570;28;20428;-82
2022/09/07 12:19:19;;;;;;;4.17;2.60;;;27.70;96.30;;;;;;4895500;29;20442;-82
2022/09/07 12:21:50;;;;;;;8.07;2.20;;;27.90;96.30;;;;;;4921503;29;20474;-82
2022/09/07 12:24:40;;;;;;;6.57;3.20;;;27.90;95.40;;;;;;4966453;28;20436;-81
2022/09/07 12:27:31;;;;;;;7.30;2.43;;;28.20;93.00;;;;;;4994840;28;20404;-83
2022/09/07 12:29:57;;;;;;;6.07;2.40;;;28.70;95.50;;;;;;4994015;28;20515;-82
2022/09/07 12:32:47;;;;;;;9.23;2.70;;;28.60;92.10;;;;;;4993415;28;20959;-82
2022/09/07 12:35:32;;;;;;;7.53;2.87;;;28.80;93.30;;;;;;4994827;28;20652;-82
2022/09/07 12:38:04;;;;;;;7.20;2.80;;;28.20;95.20;;;;;;5012599;28;20427;-82
2022/09/07 12:40:31;;;;;;;12.87;2.90;;;28.00;95.80;;;;;;4977666;28;20476;-81
2022/09/07 12:43:11;;;;;;;7.57;3.37;;;27.90;96.30;;;;;;5005677;28;20928;-80
2022/09/07 12:45:37;;;;;;;8.53;3.10;;;28.20;96.30;;;;;;5000920;28;20457;-80
2022/09/07 12:48:25;;;;;;;6.10;2.90;;;28.80;96.10;;;;;;5029141;28;20461;-80
2022/09/07 12:51:15;;;;;;;9.80;3.13;;;28.80;96.30;;;;;;5030814;28;20207;-82
2022/09/07 12:54:17;;;;;;;12.20;5.70;;;29.20;96.30;;;;;;5034799;28;20429;-81
2022/09/07 12:56:57;;;;;;;14.13;7.23;;;28.50;92.50;;;;;;5033597;28;20536;-80
2022/09/07 12:59:56;;;;;;;8.83;4.70;;;28.10;96.30;;;;;;5024587;28;20430;-81
2022/09/07 13:03:06;;;;;;;10.10;3.87;;;27.60;96.30;;;;;;5016768;28;20453;-81
2022/09/07 13:05:58;;;;;;;9.50;3.77;;;27.50;96.30;;;;;;5001717;28;20420;-81
2022/09/07 13:08:46;;;;;;;5.80;3.27;;;27.50;96.30;;;;;;4994025;28;20446;-80
2022/09/07 13:11:18;;;;;;;5.30;3.43;;;27.60;96.30;;;;;;5020882;28;20434;-80
2022/09/07 13:13:58;;;;;;;4.27;2.60;;;27.40;96.30;;;;;;5018552;28;20454;-81
2022/09/07 13:16:30;;;;;;;7.20;3.33;;;27.20;96.30;;;;;;4980824;28;20435;-80
2022/09/07 13:18:56;;;;;;;6.00;2.67;;;26.70;96.30;;;;;;4983388;28;20507;-80
2022/09/07 13:21:30;;;;;;;4.13;2.60;;;26.70;96.30;;;;;;5004360;28;20479;-80
2022/09/07 13:24:15;;;;;;;6.73;3.63;;;26.40;96.30;;;;;;5007992;28;20439;-80
2022/09/07 13:27:02;;;;;;;9.00;3.10;;;26.80;96.30;;;;;;5013356;28;20421;-80
2022/09/07 13:29:46;;;;;;;5.00;2.63;;;26.90;96.30;;;;;;4994326;28;20409;-80
2022/09/07 13:32:18;;;;;;;6.47;2.90;;;26.80;96.30;;;;;;4999808;28;20449;-80
2022/09/07 13:35:03;;;;;;;6.20;3.03;;;26.60;96.30;;;;;;5014660;28;20403;-80
2022/09/07 13:37:36;;;;;;;14.50;3.40;;;26.50;96.30;;;;;;5013180;28;20411;-80
2022/09/07 13:40:03;;;;;;;6.70;3.60;;;26.20;96.30;;;;;;5004966;28;20900;-82
2022/09/07 13:42:31;;;;;;;6.47;3.10;;;26.20;96.30;;;;;;4997072;28;20477;-81
2022/09/07 13:44:59;;;;;;;6.27;4.23;;;26.40;96.30;;;;;;4997953;28;20412;-82
2022/09/07 13:47:36;;;;;;;9.53;4.10;;;27.10;96.30;;;;;;4993387;28;20860;-81
2022/09/07 13:50:19;;;;;;;9.50;3.47;;;27.90;96.30;;;;;;4995903;28;20427;-80
2022/09/07 13:53:01;;;;;;;9.83;4.33;;;28.30;96.30;;;;;;4996673;28;20423;-80
2022/09/07 13:55:38;;;;;;;6.23;3.57;;;28.30;96.30;;;;;;4996567;28;20502;-81
2022/09/07 13:58:16;;;;;;;18.90;4.60;;;27.80;96.30;;;;;;5015629;28;20411;-80
2022/09/07 14:01:01;;;;;;;8.87;4.33;;;27.80;96.30;;;;;;5017972;28;20459;-80
2022/09/07 14:03:29;;;;;;;8.30;4.00;;;27.60;96.30;;;;;;5016319;28;20486;-79
2022/09/07 14:06:19;;;;;;;10.17;5.10;;;27.60;96.30;;;;;;5016461;28;20403;-79
2022/09/07 14:08:54;;;;;;;11.13;4.83;;;27.50;96.30;;;;;;5016308;28;20435;-81
2022/09/07 14:11:36;;;;;;;6.27;4.10;;;27.70;96.30;;;;;;5016264;28;20430;-81
2022/09/07 14:14:20;;;;;;;7.77;4.27;;;27.90;94.90;;;;;;4998612;28;20416;-79
2022/09/07 14:17:09;;;;;;;6.20;3.47;;;28.40;94.60;;;;;;4998436;28;20415;-79
2022/09/07 14:19:48;;;;;;;8.27;3.70;;;28.90;96.30;;;;;;5015828;28;20419;-79
2022/09/07 14:22:22;;;;;;;11.03;3.73;;;29.10;91.70;;;;;;4998104;28;20493;-79
2022/09/07 14:24:56;;;;;;;4.10;3.20;;;29.30;92.90;;;;;;5015736;28;20622;-79
2022/09/07 14:27:24;;;;;;;6.03;3.53;;;29.30;95.20;;;;;;5015902;28;20394;-82
2022/09/07 14:29:50;;;;;;;6.10;3.00;;;29.30;93.50;;;;;;4999118;28;20491;-82
2022/09/07 14:32:21;;;;;;;6.20;3.20;;;29.30;91.60;;;;;;4978740;28;20432;-82
2022/09/07 14:34:48;;;;;;;6.77;2.80;;;29.40;94.30;;;;;;5011590;28;20824;-83
2022/09/07 14:37:16;;;;;;;8.27;2.50;;;29.60;91.30;;;;;;5015546;28;20425;-83
2022/09/07 14:39:45;;;;;;;6.83;2.80;;;29.50;94.20;;;;;;5015298;28;20418;-83
2022/09/07 14:42:15;;;;;;;6.57;2.93;;;29.20;91.80;;;;;;5033216;28;20490;-81
2022/09/07 14:44:44;;;;;;;8.93;2.83;;;28.90;94.50;;;;;;5036127;28;20402;-82
2022/09/07 14:47:32;;;;;;;5.90;2.70;;;28.70;90.30;;;;;;5035749;28;20957;-82
2022/09/07 14:50:05;;;;;;;7.10;3.27;;;28.40;93.90;;;;;;5034646;28;20429;-82
2022/09/07 14:52:35;;;;;;;4.73;2.90;;;28.10;92.40;;;;;;5017205;28;20965;-82
2022/09/07 14:55:15;;;;;;;4.83;2.37;;;28.00;94.80;;;;;;5034896;28;20753;-82
2022/09/07 14:57:40;;;;;;;3.60;2.20;;;27.70;94.80;;;;;;5035234;28;20471;-82
2022/09/07 15:00:42;;;;;;;6.43;2.50;;;27.60;96.30;;;;;;5017150;28;20430;-82
2022/09/07 15:03:27;;;;;;;4.37;2.30;;;27.20;94.90;;;;;;4987260;28;20186;-82
2022/09/07 15:05:54;;;;;;;6.27;3.00;;;27.10;96.00;;;;;;5035742;28;20448;-82
2022/09/07 15:08:35;;;;;;;3.70;2.43;;;26.80;96.30;;;;;;5009597;28;20980;-82
2022/09/07 15:11:20;;;;;;;11.00;7.57;;;26.80;96.30;;;;;;5008736;28;20443;-82
2022/09/07 15:13:54;;;;;;;13.07;10.30;;;26.70;96.30;;;;;;4991226;28;20412;-81
2022/09/07 15:16:32;;;;;;;13.70;9.77;;;26.10;96.30;;;;;;4992658;28;20412;-82
2022/09/07 15:19:02;;;;;;;22.20;9.70;;;25.60;96.30;;;;;;5006017;28;20416;-80
2022/09/07 15:21:30;;;;;;;12.13;7.80;;;25.20;96.30;;;;;;5002150;28;20594;-81
2022/09/07 15:23:57;;;;;;;9.63;6.27;;;24.90;96.30;;;;;;5003419;28;20931;-81
2022/09/07 15:26:27;;;;;;;10.97;5.83;;;24.60;96.30;;;;;;4999958;28;20404;-80
2022/09/07 15:28:53;;;;;;;8.53;4.80;;;24.30;96.30;;;;;;5004060;28;20421;-80
2022/09/07 15:31:19;;;;;;;6.87;4.43;;;23.90;96.30;;;;;;5000272;28;20441;-81
2022/09/07 15:33:46;;;;;;;12.20;4.50;;;23.80;96.30;;;;;;5013053;28;20265;-81
2022/09/07 15:36:13;;;;;;;8.27;4.33;;;23.50;96.30;;;;;;5009676;28;20408;-77
2022/09/07 15:38:39;;;;;;;9.10;3.87;;;23.50;96.30;;;;;;5012534;28;20506;-76
2022/09/07 15:41:05;;;;;;;7.10;3.50;;;23.50;96.30;;;;;;5019639;28;20911;-76
2022/09/07 15:43:30;;;;;;;5.97;3.50;;;23.30;96.30;;;;;;5004618;28;20184;-76
2022/09/07 15:45:56;;;;;;;5.70;3.20;;;23.20;96.30;;;;;;5013781;28;20408;-76
2022/09/07 15:48:26;;;;;;;5.20;3.40;;;23.20;96.30;;;;;;5005973;28;20657;-76
2022/09/07 15:51:00;;;;;;;10.00;3.60;;;22.90;96.30;;;;;;5008137;28;20685;-76
2022/09/07 15:53:25;;;;;;;6.90;4.73;;;22.90;96.30;;;;;;5002931;28;20515;-76
2022/09/07 15:55:54;;;;;;;9.30;4.90;;;22.80;96.30;;;;;;5021080;28;20514;-76
2022/09/07 15:58:20;;;;;;;12.43;4.20;;;22.70;96.30;;;;;;5016893;28;20181;-76
2022/09/07 16:00:46;;;;;;;14.83;5.77;;;22.50;96.30;;;;;;5013340;28;20470;-77
2022/09/07 16:03:11;;;;;;;6.87;4.43;;;22.40;96.30;;;;;;5013623;28;20185;-75
2022/09/07 16:05:42;;;;;;;7.93;4.70;;;22.60;96.30;;;;;;5013088;28;20183;-75
2022/09/07 16:08:12;;;;;;;7.43;4.70;;;22.40;96.30;;;;;;5012889;28;20187;-75
2022/09/07 16:10:38;;;;;;;8.67;4.60;;;22.20;96.30;;;;;;5025649;28;20442;-74
2022/09/07 16:13:03;;;;;;;6.40;4.90;;;21.90;96.30;;;;;;5015196;28;20426;-75
2022/09/07 16:15:29;;;;;;;7.70;5.30;;;21.80;96.30;;;;;;5035037;28;20176;-75
2022/09/07 16:17:55;;;;;;;7.47;5.10;;;21.60;96.30;;;;;;5040551;28;20188;-76
2022/09/07 16:20:21;;;;;;;7.20;5.40;;;21.50;96.30;;;;;;5016967;28;20423;-76
2022/09/07 16:22:46;;;;;;;7.83;4.87;;;21.40;96.30;;;;;;5032201;28;20187;-75
2022/09/07 16:25:11;;;;;;;8.53;4.10;;;21.40;96.30;;;;;;5009289;28;20188;-78
2022/09/07 16:27:37;;;;;;;7.10;4.93;;;21.30;96.30;;;;;;5010971;28;20189;-77
2022/09/07 16:30:03;;;;;;;8.60;4.27;;;21.20;96.30;;;;;;4990284;28;20181;-77
2022/09/07 16:32:29;;;;;;;10.80;4.70;;;20.90;96.30;;;;;;4998433;28;20215;-76
2022/09/07 16:34:54;;;;;;;16.27;4.23;;;20.80;96.30;;;;;;5028300;28;20431;-76
2022/09/07 16:37:20;;;;;;;5.97;4.57;;;20.80;96.30;;;;;;5013276;28;20168;-76
2022/09/07 16:39:45;;;;;;;9.40;4.67;;;20.70;96.30;;;;;;5026810;28;20187;-78
2022/09/07 16:42:11;;;;;;;14.23;5.40;;;20.60;96.30;;;;;;5031872;28;20207;-78
2022/09/07 16:44:36;;;;;;;8.97;5.67;;;20.60;96.30;;;;;;5025129;28;20559;-78
2022/09/07 16:47:03;;;;;;;9.07;5.17;;;20.60;96.30;;;;;;5032357;28;20255;-78
2022/09/07 16:49:29;;;;;;;10.03;4.70;;;20.70;96.30;;;;;;5031183;28;20212;-78
2022/09/07 16:51:54;;;;;;;28.07;5.70;;;20.70;96.30;;;;;;5032313;28;20470;-77
2022/09/07 16:54:19;;;;;;;6.80;4.27;;;20.50;96.30;;;;;;5032256;28;20180;-77
2022/09/07 16:56:46;;;;;;;12.07;4.90;;;20.30;96.30;;;;;;5021021;28;20287;-77
2022/09/07 16:59:15;;;;;;;13.20;4.90;;;20.20;96.30;;;;;;5031873;28;20302;-77
2022/09/07 17:01:41;;;;;;;10.60;4.60;;;20.10;96.30;;;;;;5020920;28;20459;-76
2022/09/07 17:04:07;;;;;;;10.73;4.87;;;20.10;96.30;;;;;;5014086;28;20404;-78
2022/09/07 17:06:32;;;;;;;5.70;4.30;;;20.10;96.30;;;;;;5016509;28;20985;-80
2022/09/07 17:08:58;;;;;;;6.33;4.43;;;20.00;96.30;;;;;;5018267;28;20187;-80
2022/09/07 17:11:27;;;;;;;7.03;4.40;;;19.90;96.30;;;;;;5017834;28;20193;-80
2022/09/07 17:13:55;;;;;;;7.67;4.10;;;19.80;96.30;;;;;;5016524;28;20423;-80
2022/09/07 17:16:23;;;;;;;10.10;4.77;;;19.80;96.30;;;;;;5016785;28;20470;-80
2022/09/07 17:18:49;;;;;;;8.13;5.70;;;19.70;96.30;;;;;;5017077;28;20534;-80
2022/09/07 17:21:16;;;;;;;8.70;4.13;;;19.80;96.30;;;;;;5000179;28;20459;-80
2022/09/07 17:23:42;;;;;;;7.03;4.93;;;19.60;96.30;;;;;;5017097;28;20896;-80
2022/09/07 17:26:12;;;;;;;7.33;4.73;;;19.60;96.30;;;;;;5017104;28;20400;-80
2022/09/07 17:28:39;;;;;;;6.10;4.07;;;19.50;96.30;;;;;;5017398;28;20442;-78
2022/09/07 17:31:07;;;;;;;4.53;4.13;;;19.60;96.30;;;;;;5026427;28;20458;-80
2022/09/07 17:33:33;;;;;;;8.63;4.23;;;19.60;96.30;;;;;;5018339;28;20415;-80
2022/09/07 17:36:00;;;;;;;7.17;4.47;;;19.60;96.30;;;;;;5027942;28;20465;-77
2022/09/07 17:38:26;;;;;;;9.90;3.97;;;19.50;96.30;;;;;;5020494;28;20407;-78
2022/09/07 17:40:51;;;;;;;5.30;4.17;;;19.50;96.30;;;;;;5012491;28;20451;-78
2022/09/07 17:43:17;;;;;;;7.30;4.60;;;19.50;96.30;;;;;;4987980;28;20252;-78
2022/09/07 17:45:42;;;;;;;5.50;4.10;;;19.40;96.30;;;;;;4994751;28;20544;-78
2022/09/07 17:48:08;;;;;;;7.63;4.77;;;19.50;96.30;;;;;;5030121;28;20177;-79
2022/09/07 17:50:33;;;;;;;5.33;3.77;;;19.50;96.30;;;;;;5032039;28;20196;-80
2022/09/07 17:52:59;;;;;;;9.43;5.00;;;19.40;96.30;;;;;;5000193;28;20178;-78
2022/09/07 17:55:24;;;;;;;4.43;3.80;;;19.30;96.30;;;;;;5010383;28;20653;-78
2022/09/07 17:57:50;;;;;;;8.43;4.17;;;19.20;96.30;;;;;;5013157;28;20180;-79
2022/09/07 18:00:15;;;;;;;4.60;3.70;;;19.20;96.30;;;;;;4996552;28;20634;-78
2022/09/07 18:02:41;;;;;;;6.33;4.00;;;19.00;96.30;;;;;;4993396;28;20201;-79
2022/09/07 18:05:06;;;;;;;8.60;4.43;;;18.80;96.30;;;;;;5011672;28;20180;-78
2022/09/07 18:07:33;;;;;;;10.70;4.77;;;18.60;96.30;;;;;;5008802;28;20686;-79
2022/09/07 18:09:59;;;;;;;6.27;4.43;;;18.50;96.30;;;;;;5002270;28;20208;-78
2022/09/07 18:12:25;;;;;;;5.53;4.23;;;18.40;96.30;;;;;;4998730;28;20466;-79
2022/09/07 18:14:50;;;;;;;10.80;4.03;;;18.50;96.30;;;;;;5009975;28;20597;-78
2022/09/07 18:17:16;;;;;;;5.70;3.60;;;18.40;96.30;;;;;;5011996;28;20177;-79
2022/09/07 18:19:41;;;;;;;7.00;4.03;;;18.30;96.30;;;;;;4994036;28;20208;-79
2022/09/07 18:22:07;;;;;;;11.73;3.30;;;18.40;96.30;;;;;;4994158;28;20780;-79
2022/09/07 18:24:33;;;;;;;6.23;3.17;;;18.50;96.30;;;;;;5011738;28;20189;-79
2022/09/07 18:26:58;;;;;;;4.47;2.80;;;18.40;96.30;;;;;;5011770;28;20539;-79
2022/09/07 18:29:25;;;;;;;5.80;3.00;;;18.30;96.30;;;;;;5011149;28;20181;-79
2022/09/07 18:31:51;;;;;;;6.87;4.10;;;18.30;96.30;;;;;;5004829;28;20198;-78
2022/09/07 18:34:16;;;;;;;5.93;3.63;;;18.30;96.30;;;;;;4974646;28;20742;-78
2022/09/07 18:36:42;;;;;;;6.90;4.53;;;18.10;96.30;;;;;;4991837;28;20260;-78
2022/09/07 18:39:07;;;;;;;6.83;4.20;;;18.00;96.30;;;;;;4994749;28;20189;-78